createdAt,value
2022-09-14T00:01:52.362Z,88.20
2022-09-14T00:04:25.411Z,89.10
2022-09-14T00:07:00.060Z,89.00
2022-09-14T00:09:28.082Z,89.70
2022-09-14T00:11:57.623Z,88.60
2022-09-14T00:14:29.358Z,88.60
2022-09-14T00:17:05.143Z,89.20
2022-09-14T00:19:45.417Z,89.10
2022-09-14T00:22:15.383Z,89.20
2022-09-14T00:24:43.594Z,89.80
2022-09-14T00:27:12.482Z,88.80
2022-09-14T00:29:41.380Z,89.00
2022-09-14T00:32:17.194Z,89.20
2022-09-14T00:34:47.859Z,89.50
2022-09-14T00:37:15.539Z,88.30
2022-09-14T00:39:43.699Z,88.90
2022-09-14T00:42:15.935Z,89.50
2022-09-14T00:44:46.647Z,88.00
2022-09-14T00:47:14.320Z,88.40
2022-09-14T00:49:50.976Z,88.30
2022-09-14T00:52:35.359Z,87.90
2022-09-14T00:55:08.437Z,88.60
2022-09-14T00:57:39.351Z,87.50
2022-09-14T01:00:14.974Z,87.90
2022-09-14T01:02:42.368Z,87.60
2022-09-14T01:05:10.777Z,88.00
2022-09-14T01:07:44.159Z,87.60
2022-09-14T01:10:30.260Z,86.70
2022-09-14T01:13:22.597Z,87.90
2022-09-14T01:16:17.879Z,88.00
2022-09-14T01:18:50.647Z,88.50
2022-09-14T01:21:26.071Z,88.10
2022-09-14T01:24:04.001Z,89.00
2022-09-14T01:27:02.183Z,88.70
2022-09-14T01:29:55.433Z,88.20
2022-09-14T01:32:37.743Z,88.30
2022-09-14T01:35:24.853Z,89.60
2022-09-14T01:38:13.354Z,89.80
2022-09-14T01:40:42.874Z,89.40
2022-09-14T01:43:12.333Z,89.60
2022-09-14T01:45:42.475Z,89.20
2022-09-14T01:48:10.559Z,89.30
2022-09-14T01:50:40.553Z,89.50
2022-09-14T01:53:22.574Z,89.10
2022-09-14T01:55:53.354Z,89.00
2022-09-14T01:58:27.930Z,89.20
2022-09-14T02:00:56.276Z,89.20
2022-09-14T02:03:45.461Z,89.90
2022-09-14T02:06:33.068Z,89.70
2022-09-14T02:09:00.825Z,89.50
2022-09-14T02:11:34.129Z,88.70
2022-09-14T02:14:08.982Z,89.10
2022-09-14T02:16:44.981Z,88.90
2022-09-14T02:19:13.784Z,89.30
2022-09-14T02:21:41.095Z,88.70
2022-09-14T02:24:08.390Z,88.70
2022-09-14T02:26:35.850Z,89.60
2022-09-14T02:29:06.138Z,89.80
2022-09-14T02:31:39.435Z,89.40
2022-09-14T02:34:24.796Z,89.30
2022-09-14T02:37:03.565Z,89.50
2022-09-14T02:39:47.544Z,88.90
2022-09-14T02:42:29.056Z,89.40
2022-09-14T02:45:11.500Z,89.30
2022-09-14T02:48:03.077Z,90.00
2022-09-14T02:50:49.275Z,89.70
2022-09-14T02:53:29.021Z,88.50
2022-09-14T02:55:59.643Z,88.90
2022-09-14T02:58:34.474Z,89.80
2022-09-14T03:01:03.996Z,89.50
2022-09-14T03:03:38.927Z,88.40
2022-09-14T03:06:11.255Z,89.50
2022-09-14T03:08:52.189Z,88.80
2022-09-14T03:11:19.769Z,89.20
2022-09-14T03:13:49.873Z,89.40
2022-09-14T03:16:23.328Z,89.90
2022-09-14T03:18:51.147Z,89.60
2022-09-14T03:21:18.413Z,89.70
2022-09-14T03:23:47.455Z,89.00
2022-09-14T03:29:51.595Z,89.60
2022-09-14T03:32:18.835Z,88.80
2022-09-14T03:34:47.321Z,88.80
2022-09-14T03:37:44.786Z,89.00
2022-09-14T03:40:15.131Z,89.10
2022-09-14T03:42:45.347Z,89.10
2022-09-14T03:45:16.480Z,89.00
2022-09-14T03:47:43.811Z,88.60
2022-09-14T03:50:14.553Z,89.30
2022-09-14T03:52:44.401Z,88.90
2022-09-14T03:55:20.993Z,89.20
2022-09-14T03:57:51.368Z,89.20
2022-09-14T04:00:21.282Z,89.40
2022-09-14T04:02:51.084Z,90.10
2022-09-14T04:05:21.940Z,89.70
2022-09-14T04:07:54.151Z,89.30
2022-09-14T04:10:24.764Z,90.00
2022-09-14T04:13:14.883Z,90.20
2022-09-14T04:15:43.814Z,90.00
2022-09-14T04:18:20.389Z,89.70
2022-09-14T04:21:21.259Z,90.40
2022-09-14T04:26:45.663Z,90.40
2022-09-14T04:29:21.539Z,89.50
2022-09-14T04:31:49.438Z,90.20
2022-09-14T04:34:22.025Z,88.80
2022-09-14T04:36:52.612Z,89.00
2022-09-14T04:39:22.697Z,89.30
2022-09-14T04:41:58.620Z,89.30
2022-09-14T04:44:29.737Z,89.60
2022-09-14T04:46:56.992Z,89.20
2022-09-14T04:49:28.092Z,89.10
2022-09-14T04:51:59.006Z,89.60
2022-09-14T04:54:27.889Z,89.80
2022-09-14T04:56:55.112Z,89.30
2022-09-14T04:59:22.292Z,89.40
2022-09-14T05:01:49.476Z,90.30
2022-09-14T05:04:16.849Z,89.70
2022-09-14T05:06:44.500Z,89.50
2022-09-14T05:09:16.561Z,90.00
2022-09-14T05:11:44.393Z,89.60
2022-09-14T05:14:15.612Z,89.00
2022-09-14T05:16:43.063Z,89.10
2022-09-14T05:19:12.994Z,89.80
2022-09-14T05:21:45.919Z,88.90
2022-09-14T05:24:15.042Z,88.90
2022-09-14T05:26:43.392Z,89.60
2022-09-14T05:29:14.366Z,89.70
2022-09-14T05:31:44.578Z,89.40
2022-09-14T05:34:29.277Z,88.70
2022-09-14T05:37:13.299Z,89.20
2022-09-14T05:39:49.829Z,89.40
2022-09-14T05:43:05.857Z,89.20
2022-09-14T05:49:06.076Z,88.70
2022-09-14T05:51:34.502Z,89.10
2022-09-14T05:54:03.853Z,89.20
2022-09-14T05:56:32.018Z,89.10
2022-09-14T05:59:00.483Z,88.40
2022-09-14T06:01:30.520Z,88.20
2022-09-14T06:04:00.574Z,88.90
2022-09-14T06:06:27.649Z,88.00
2022-09-14T06:08:55.798Z,88.80
2022-09-14T06:11:31.007Z,88.20
2022-09-14T06:13:58.872Z,88.90
2022-09-14T06:16:29.360Z,88.50
2022-09-14T06:18:58.166Z,87.90
2022-09-14T06:21:28.618Z,89.00
2022-09-14T06:23:56.279Z,88.20
2022-09-14T06:26:23.788Z,88.30
2022-09-14T06:28:51.749Z,87.60
2022-09-14T06:31:22.806Z,87.60
2022-09-14T06:33:50.815Z,87.30
2022-09-14T06:36:27.744Z,87.30
2022-09-14T06:38:55.172Z,87.90
2022-09-14T06:41:27.096Z,87.90
2022-09-14T06:46:42.734Z,88.30
2022-09-14T06:49:23.245Z,88.00
2022-09-14T06:52:02.202Z,87.90
2022-09-14T06:54:30.414Z,87.90
2022-09-14T06:56:58.989Z,88.30
2022-09-14T06:59:29.307Z,87.10
2022-09-14T07:02:02.784Z,87.30
2022-09-14T07:04:33.143Z,87.90
2022-09-14T07:07:22.295Z,87.00
2022-09-14T07:11:39.031Z,86.20
2022-09-14T07:17:59.520Z,86.10
2022-09-14T07:21:01.231Z,86.10
2022-09-14T07:25:17.715Z,85.50
2022-09-14T07:31:29.589Z,85.10
2022-09-14T07:37:36.738Z,84.90
2022-09-14T07:40:38.017Z,84.50
2022-09-14T07:43:18.855Z,84.10
2022-09-14T07:51:06.623Z,84.90
2022-09-14T07:57:07.196Z,84.40
2022-09-14T08:00:22.688Z,85.10
2022-09-14T08:03:08.657Z,84.60
2022-09-14T08:15:49.288Z,83.10
2022-09-14T08:18:41.333Z,82.60
2022-09-14T08:29:05.703Z,80.60
2022-09-14T08:35:07.526Z,79.90
2022-09-14T08:37:36.388Z,80.30
2022-09-14T08:40:19.687Z,78.60
2022-09-14T08:42:55.264Z,77.80
2022-09-14T08:46:12.188Z,77.30
2022-09-14T08:48:57.806Z,75.80
2022-09-14T08:51:54.623Z,76.60
2022-09-14T08:54:55.242Z,76.70
2022-09-14T08:57:44.190Z,75.30
2022-09-14T09:10:39.056Z,74.20
2022-09-14T09:13:24.799Z,75.60
2022-09-14T09:17:38.295Z,74.30
2022-09-14T09:37:25.773Z,73.10
2022-09-14T09:40:04.839Z,71.90
2022-09-14T09:42:40.289Z,72.30
2022-09-14T09:45:15.991Z,71.40
2022-09-14T09:48:02.993Z,72.40
2022-09-14T09:54:15.495Z,72.80
2022-09-14T09:56:58.380Z,72.60
2022-09-14T09:59:36.094Z,71.50
2022-09-14T10:02:30.569Z,72.60
2022-09-14T10:05:02.510Z,72.20
2022-09-14T10:07:32.957Z,73.50
2022-09-14T10:10:06.395Z,71.10
2022-09-14T10:12:33.857Z,71.60
2022-09-14T10:15:27.894Z,71.50
2022-09-14T10:18:11.212Z,71.50
2022-09-14T10:20:58.722Z,71.60
2022-09-14T10:23:27.048Z,70.30
2022-09-14T10:26:14.896Z,71.70
2022-09-14T10:28:43.529Z,72.00
2022-09-14T10:31:24.766Z,72.90
2022-09-14T10:33:54.074Z,72.80
2022-09-14T10:36:33.196Z,73.80
2022-09-14T10:39:03.536Z,72.20
2022-09-14T10:41:45.869Z,69.80
2022-09-14T10:44:25.914Z,71.10
2022-09-14T10:47:04.791Z,70.90
2022-09-14T10:49:41.138Z,70.70
2022-09-14T10:52:47.279Z,71.40
2022-09-14T10:55:25.592Z,70.60
2022-09-14T10:58:14.479Z,72.80
2022-09-14T11:01:08.702Z,71.30
2022-09-14T11:03:56.889Z,71.30
2022-09-14T11:06:27.214Z,69.40
2022-09-14T11:09:17.344Z,68.50
2022-09-14T11:12:12.231Z,67.40
2022-09-14T11:14:39.361Z,68.90
2022-09-14T11:17:25.487Z,68.80
2022-09-14T11:19:56.194Z,66.30
2022-09-14T11:23:04.856Z,68.30
2022-09-14T11:26:17.379Z,66.50
2022-09-14T11:28:51.941Z,66.00
2022-09-14T11:31:27.104Z,65.80
2022-09-14T11:34:18.155Z,64.30
2022-09-14T11:36:49.188Z,65.40
2022-09-14T11:40:13.869Z,63.90
2022-09-14T11:42:46.955Z,64.00
2022-09-14T11:45:18.196Z,62.50
2022-09-14T11:47:50.597Z,64.10
2022-09-14T11:50:24.185Z,63.40
2022-09-14T11:53:04.005Z,63.40
2022-09-14T11:55:31.422Z,61.10
2022-09-14T11:58:06.317Z,60.70
2022-09-14T12:00:44.883Z,63.50
2022-09-14T12:03:20.724Z,63.10
2022-09-14T12:05:49.106Z,59.30
2022-09-14T12:08:31.603Z,60.40
2022-09-14T12:11:23.483Z,57.60
2022-09-14T12:14:27.328Z,57.30
2022-09-14T12:17:35.754Z,53.40
2022-09-14T12:20:28.673Z,53.30
2022-09-14T12:23:11.203Z,55.10
2022-09-14T12:25:41.104Z,51.30
2022-09-14T12:28:30.650Z,54.00
2022-09-14T12:30:58.828Z,51.20
2022-09-14T12:33:36.096Z,53.90
2022-09-14T12:36:29.175Z,50.40
2022-09-14T12:38:59.467Z,49.10
2022-09-14T12:41:46.747Z,50.80
2022-09-14T12:44:37.653Z,50.40
2022-09-14T12:47:29.999Z,52.20
2022-09-14T12:50:16.583Z,53.40
2022-09-14T12:53:21.875Z,53.80
2022-09-14T12:56:12.298Z,51.90
2022-09-14T12:58:39.762Z,51.80
2022-09-14T13:01:45.881Z,53.10
2022-09-14T13:04:42.360Z,52.90
2022-09-14T13:07:21.794Z,49.80
2022-09-14T13:09:54.159Z,48.30
2022-09-14T13:12:45.663Z,52.10
2022-09-14T13:15:17.064Z,49.50
2022-09-14T13:17:58.365Z,52.40
2022-09-14T13:20:29.480Z,50.80
2022-09-14T13:22:56.714Z,50.70
2022-09-14T13:25:33.193Z,52.40
2022-09-14T13:28:05.622Z,51.70
2022-09-14T13:30:33.962Z,50.20
2022-09-14T13:33:28.879Z,49.40
2022-09-14T13:35:59.131Z,46.60
2022-09-14T13:38:37.078Z,48.70
2022-09-14T13:41:17.012Z,44.50
2022-09-14T13:43:44.916Z,46.50
2022-09-14T13:46:12.531Z,46.20
2022-09-14T13:48:41.489Z,48.10
2022-09-14T13:51:16.146Z,49.30
2022-09-14T13:53:43.543Z,48.80
2022-09-14T13:56:33.931Z,49.40
2022-09-14T13:59:13.054Z,48.50
2022-09-14T14:01:45.315Z,47.40
2022-09-14T14:04:27.719Z,47.80
2022-09-14T14:07:14.631Z,47.00
2022-09-14T14:09:52.314Z,46.80
2022-09-14T14:12:28.410Z,44.20
2022-09-14T14:14:57.163Z,47.30
2022-09-14T14:17:37.060Z,47.50
2022-09-14T14:20:27.307Z,47.70
2022-09-14T14:23:10.757Z,46.00
2022-09-14T14:25:46.030Z,46.70
2022-09-14T14:28:27.482Z,48.40
2022-09-14T14:30:57.882Z,47.70
2022-09-14T14:33:25.192Z,48.00
2022-09-14T14:35:56.629Z,47.80
2022-09-14T14:38:36.633Z,49.40
2022-09-14T14:41:03.911Z,47.60
2022-09-14T14:43:31.677Z,44.80
2022-09-14T14:46:04.376Z,47.80
2022-09-14T14:48:33.783Z,44.40
2022-09-14T14:51:03.676Z,46.00
2022-09-14T14:53:30.794Z,47.50
2022-09-14T14:55:58.249Z,43.50
2022-09-14T14:58:29.289Z,44.60
2022-09-14T15:00:56.737Z,47.70
2022-09-14T15:03:24.467Z,45.70
2022-09-14T15:05:51.742Z,47.40
2022-09-14T15:08:20.217Z,46.80
2022-09-14T15:10:47.806Z,46.50
2022-09-14T15:13:15.145Z,46.40
2022-09-14T15:15:43.227Z,46.10
2022-09-14T15:18:11.178Z,46.00
2022-09-14T15:20:39.434Z,45.80
2022-09-14T15:23:06.788Z,43.60
2022-09-14T15:25:36.918Z,43.10
2022-09-14T15:28:04.209Z,42.00
2022-09-14T15:30:40.292Z,43.60
2022-09-14T15:33:26.183Z,43.40
2022-09-14T15:37:04.592Z,43.50
2022-09-14T15:39:35.665Z,40.70
2022-09-14T15:42:05.838Z,41.90
2022-09-14T15:44:36.111Z,43.10
2022-09-14T15:47:09.991Z,41.60
2022-09-14T15:49:37.378Z,41.90
2022-09-14T15:52:04.871Z,42.30
2022-09-14T15:54:37.402Z,43.70
2022-09-14T15:57:16.913Z,43.60
2022-09-14T15:59:45.248Z,44.70
2022-09-14T16:02:12.562Z,44.30
2022-09-14T16:04:39.847Z,44.80
2022-09-14T16:07:10.149Z,43.60
2022-09-14T16:09:58.795Z,42.20
2022-09-14T16:12:33.309Z,43.30
2022-09-14T16:15:00.923Z,43.30
2022-09-14T16:17:29.590Z,45.20
2022-09-14T16:19:56.926Z,45.30
2022-09-14T16:22:25.364Z,44.10
2022-09-14T16:24:52.532Z,42.50
2022-09-14T16:27:36.575Z,44.20
2022-09-14T16:30:04.058Z,41.70
2022-09-14T16:32:31.807Z,43.00
2022-09-14T16:34:59.109Z,44.20
2022-09-14T16:37:27.670Z,43.70
2022-09-14T16:39:55.025Z,44.00
2022-09-14T16:42:22.347Z,43.90
2022-09-14T16:44:49.874Z,43.70
2022-09-14T16:47:17.057Z,44.20
2022-09-14T16:49:44.404Z,42.30
2022-09-14T16:52:11.747Z,43.80
2022-09-14T16:54:38.932Z,43.30
2022-09-14T16:57:06.137Z,41.80
2022-09-14T16:59:33.469Z,43.10
2022-09-14T17:02:00.723Z,44.40
2022-09-14T17:04:28.083Z,44.70
2022-09-14T17:06:56.212Z,44.80
2022-09-14T17:09:28.035Z,45.70
2022-09-14T17:11:55.715Z,46.20
2022-09-14T17:14:25.177Z,46.70
2022-09-14T17:16:52.799Z,45.40
2022-09-14T17:19:20.109Z,46.00
2022-09-14T17:21:47.801Z,45.60
2022-09-14T17:24:15.480Z,46.20
2022-09-14T17:26:43.033Z,47.10
2022-09-14T17:29:10.260Z,47.00
2022-09-14T17:31:39.380Z,46.90
2022-09-14T17:34:07.930Z,47.20
2022-09-14T17:36:35.151Z,48.20
2022-09-14T17:39:19.537Z,47.70
2022-09-14T17:41:56.807Z,47.60
2022-09-14T17:44:26.139Z,47.40
2022-09-14T17:46:53.461Z,48.40
2022-09-14T17:49:23.650Z,48.70
2022-09-14T17:51:51.290Z,48.30
2022-09-14T17:54:18.902Z,48.40
2022-09-14T17:56:46.051Z,48.80
2022-09-14T17:59:15.881Z,49.00
2022-09-14T18:01:43.119Z,49.20
2022-09-14T18:04:13.330Z,50.70
2022-09-14T18:06:42.183Z,50.20
2022-09-14T18:09:11.160Z,50.10
2022-09-14T18:11:38.552Z,51.70
2022-09-14T18:14:06.279Z,52.20
2022-09-14T18:16:33.713Z,52.30
2022-09-14T18:19:00.878Z,52.00
2022-09-14T18:21:28.797Z,52.70
2022-09-14T18:23:55.880Z,52.50
2022-09-14T18:26:23.730Z,52.20
2022-09-14T18:28:51.544Z,53.10
2022-09-14T18:31:19.784Z,53.40
2022-09-14T18:33:52.536Z,52.60
2022-09-14T18:36:20.318Z,53.40
2022-09-14T18:38:48.716Z,54.10
2022-09-14T18:41:17.397Z,54.60
2022-09-14T18:43:49.884Z,54.80
2022-09-14T18:46:18.042Z,55.30
2022-09-14T18:48:45.484Z,54.30
2022-09-14T18:51:13.683Z,53.40
2022-09-14T18:53:41.003Z,54.50
2022-09-14T18:56:10.281Z,54.10
2022-09-14T18:58:38.759Z,54.10
2022-09-14T19:01:06.198Z,53.80
2022-09-14T19:03:33.878Z,52.70
2022-09-14T19:06:05.847Z,51.60
2022-09-14T19:08:33.472Z,50.00
2022-09-14T19:11:08.178Z,50.00
2022-09-14T19:13:35.531Z,49.90
2022-09-14T19:16:10.520Z,50.80
2022-09-14T19:18:37.839Z,49.90
2022-09-14T19:21:14.077Z,49.70
2022-09-14T19:23:41.633Z,49.60
2022-09-14T19:26:11.330Z,50.30
2022-09-14T19:28:38.830Z,50.60
2022-09-14T19:31:10.928Z,50.50
2022-09-14T19:33:42.000Z,50.70
2022-09-14T19:36:14.430Z,50.30
2022-09-14T19:38:41.807Z,49.80
2022-09-14T19:41:08.910Z,49.90
2022-09-14T19:43:39.820Z,49.90
2022-09-14T19:46:10.959Z,50.40
2022-09-14T19:48:39.115Z,50.80
2022-09-14T19:51:08.689Z,51.30
2022-09-14T19:53:36.702Z,52.40
2022-09-14T19:56:10.093Z,52.90
2022-09-14T19:58:38.784Z,53.40
2022-09-14T20:01:07.728Z,53.70
2022-09-14T20:03:37.159Z,54.10
2022-09-14T20:06:21.230Z,54.40
2022-09-14T20:08:56.676Z,54.80
2022-09-14T20:11:25.144Z,55.50
2022-09-14T20:13:56.864Z,55.40
2022-09-14T20:16:33.152Z,55.90
2022-09-14T20:19:07.189Z,56.10
2022-09-14T20:21:36.612Z,56.70
2022-09-14T20:24:21.704Z,56.60
2022-09-14T20:26:50.273Z,57.20
2022-09-14T20:29:18.527Z,57.30
2022-09-14T20:31:46.209Z,57.30
2022-09-14T20:34:13.899Z,57.40
2022-09-14T20:36:41.725Z,57.40
2022-09-14T20:39:15.575Z,58.20
2022-09-14T20:41:43.626Z,58.40
2022-09-14T20:44:14.743Z,58.30
2022-09-14T20:47:23.688Z,58.90
2022-09-14T20:49:53.964Z,59.50
2022-09-14T20:52:21.501Z,59.70
2022-09-14T20:54:53.108Z,60.10
2022-09-14T20:57:25.224Z,60.50
2022-09-14T20:59:52.640Z,60.80
2022-09-14T21:02:19.989Z,61.10
2022-09-14T21:04:47.450Z,61.40
2022-09-14T21:07:14.494Z,61.70
2022-09-14T21:09:41.804Z,62.00
2022-09-14T21:12:14.221Z,62.80
2022-09-14T21:14:42.654Z,63.10
2022-09-14T21:17:09.888Z,64.10
2022-09-14T21:19:39.323Z,64.00
2022-09-14T21:22:07.785Z,64.50
2022-09-14T21:24:36.619Z,65.10
2022-09-14T21:27:04.904Z,64.80
2022-09-14T21:29:32.769Z,65.40
2022-09-14T21:32:00.233Z,65.00
2022-09-14T21:34:27.403Z,64.90
2022-09-14T21:36:57.321Z,65.50
2022-09-14T21:39:25.191Z,65.30
2022-09-14T21:41:58.437Z,65.40
2022-09-14T21:44:42.746Z,65.80
2022-09-14T21:47:10.238Z,66.30
2022-09-14T21:49:37.606Z,66.40
2022-09-14T21:52:05.439Z,66.30
2022-09-14T21:54:36.159Z,66.70
2022-09-14T21:57:04.498Z,66.50
2022-09-14T21:59:31.836Z,66.70
2022-09-14T22:01:59.059Z,66.40
2022-09-14T22:04:27.009Z,67.10
2022-09-14T22:06:54.668Z,65.70
2022-09-14T22:09:23.450Z,65.60
2022-09-14T22:11:54.034Z,65.50
2022-09-14T22:14:24.825Z,65.90
2022-09-14T22:16:51.973Z,65.70
2022-09-14T22:19:27.566Z,65.10
2022-09-14T22:21:55.016Z,65.80
2022-09-14T22:24:32.298Z,65.60
2022-09-14T22:27:05.645Z,65.40
2022-09-14T22:29:35.412Z,65.60
2022-09-14T22:32:03.543Z,65.70
2022-09-14T22:34:32.358Z,65.50
2022-09-14T22:36:59.699Z,65.80
2022-09-14T22:39:27.083Z,66.00
2022-09-14T22:41:54.931Z,66.00
2022-09-14T22:44:22.151Z,66.00
2022-09-14T22:46:49.776Z,66.40
2022-09-14T22:49:16.832Z,65.60
2022-09-14T22:51:44.109Z,65.50
2022-09-14T22:54:11.352Z,65.10
2022-09-14T22:56:39.131Z,65.70
2022-09-14T22:59:07.913Z,65.90
2022-09-14T23:01:37.474Z,65.30
2022-09-14T23:04:10.023Z,65.60
2022-09-14T23:06:39.550Z,65.30
2022-09-14T23:09:07.706Z,64.70
2022-09-14T23:11:36.005Z,64.80
2022-09-14T23:14:06.270Z,65.20
2022-09-14T23:16:33.263Z,64.80
2022-09-14T23:19:02.805Z,65.60
2022-09-14T23:21:30.380Z,65.90
2022-09-14T23:24:00.059Z,65.70
2022-09-14T23:26:27.400Z,65.30
2022-09-14T23:28:59.521Z,65.70
2022-09-14T23:31:27.168Z,65.40
2022-09-14T23:33:55.860Z,65.30
2022-09-14T23:36:23.266Z,64.90
2022-09-14T23:38:50.772Z,65.10
2022-09-14T23:41:18.642Z,66.00
2022-09-14T23:43:45.941Z,65.50
2022-09-14T23:46:13.044Z,65.40
2022-09-14T23:48:40.248Z,65.80
2022-09-14T23:51:08.228Z,65.70
2022-09-14T23:53:35.615Z,65.40
2022-09-14T23:56:05.416Z,64.80
2022-09-14T23:58:33.922Z,65.90
